sensor_id;sensor_type;location;lat;lon;timestamp;pressure;altitude;pressure_sealevel;temperature;humidity
12879;BME280;20617;49.476;10.986;2023-04-26T00:00:19;98192.53;;;6.80;100.00
12879;BME280;20617;49.476;10.986;2023-04-26T00:02:25;98197.03;;;6.75;100.00
12879;BME280;20617;49.476;10.986;2023-04-26T00:04:33;98198.75;;;6.75;100.00
12879;BME280;20617;49.476;10.986;2023-04-26T00:06:39;98201.34;;;6.75;100.00
12879;BME280;20617;49.476;10.986;2023-04-26T00:08:44;98196.00;;;6.81;100.00
12879;BME280;20617;49.476;10.986;2023-04-26T00:10:48;98196.00;;;6.81;100.00
12879;BME280;20617;49.476;10.986;2023-04-26T00:12:53;98198.63;;;6.79;100.00
12879;BME280;20617;49.476;10.986;2023-04-26T00:14:58;98194.38;;;6.77;100.00
12879;BME280;20617;49.476;10.986;2023-04-26T00:17:03;98198.81;;;6.72;100.00
12879;BME280;20617;49.476;10.986;2023-04-26T00:19:08;98204.06;;;6.70;100.00
12879;BME280;20617;49.476;10.986;2023-04-26T00:21:16;98191.88;;;6.74;100.00
12879;BME280;20617;49.476;10.986;2023-04-26T00:23:21;98191.69;;;6.80;100.00
12879;BME280;20617;49.476;10.986;2023-04-26T00:25:26;98198.69;;;6.78;100.00
12879;BME280;20617;49.476;10.986;2023-04-26T00:27:30;98199.72;;;6.71;100.00
12879;BME280;20617;49.476;10.986;2023-04-26T00:29:36;98202.47;;;6.65;100.00
12879;BME280;20617;49.476;10.986;2023-04-26T00:31:43;98194.88;;;6.58;100.00
12879;BME280;20617;49.476;10.986;2023-04-26T00:33:50;98201.88;;;6.55;100.00
12879;BME280;20617;49.476;10.986;2023-04-26T00:35:55;98204.59;;;6.50;100.00
12879;BME280;20617;49.476;10.986;2023-04-26T00:38:02;98198.72;;;6.44;100.00
12879;BME280;20617;49.476;10.986;2023-04-26T00:40:08;98205.66;;;6.42;100.00
12879;BME280;20617;49.476;10.986;2023-04-26T00:42:14;98198.00;;;6.39;100.00
12879;BME280;20617;49.476;10.986;2023-04-26T00:44:20;98197.25;;;6.33;100.00
12879;BME280;20617;49.476;10.986;2023-04-26T00:46:25;98203.25;;;6.35;100.00
12879;BME280;20617;49.476;10.986;2023-04-26T00:48:32;98205.00;;;6.35;100.00
12879;BME280;20617;49.476;10.986;2023-04-26T00:50:37;98204.06;;;6.38;100.00
12879;BME280;20617;49.476;10.986;2023-04-26T00:52:43;98201.44;;;6.39;100.00
12879;BME280;20617;49.476;10.986;2023-04-26T00:54:52;98204.81;;;6.41;100.00
12879;BME280;20617;49.476;10.986;2023-04-26T00:56:58;98205.81;;;6.37;100.00
12879;BME280;20617;49.476;10.986;2023-04-26T00:59:06;98211.13;;;6.31;100.00
12879;BME280;20617;49.476;10.986;2023-04-26T01:01:11;98205.19;;;6.27;100.00
12879;BME280;20617;49.476;10.986;2023-04-26T01:03:16;98209.66;;;6.21;100.00
12879;BME280;20617;49.476;10.986;2023-04-26T01:05:21;98214.84;;;6.21;100.00
12879;BME280;20617;49.476;10.986;2023-04-26T01:07:26;98207.09;;;6.19;100.00
12879;BME280;20617;49.476;10.986;2023-04-26T01:09:31;98203.59;;;6.22;100.00
12879;BME280;20617;49.476;10.986;2023-04-26T01:11:39;98209.59;;;6.24;100.00
12879;BME280;20617;49.476;10.986;2023-04-26T01:13:45;98214.84;;;6.21;100.00
12879;BME280;20617;49.476;10.986;2023-04-26T01:15:51;98218.25;;;6.21;100.00
12879;BME280;20617;49.476;10.986;2023-04-26T01:17:57;98221.66;;;6.23;100.00
12879;BME280;20617;49.476;10.986;2023-04-26T01:20:06;98220.78;;;6.24;100.00
12879;BME280;20617;49.476;10.986;2023-04-26T01:22:13;98224.41;;;6.17;100.00
12879;BME280;20617;49.476;10.986;2023-04-26T01:24:20;98225.28;;;6.16;100.00
12879;BME280;20617;49.476;10.986;2023-04-26T01:26:25;98227.84;;;6.18;100.00
12879;BME280;20617;49.476;10.986;2023-04-26T01:28:30;98225.34;;;6.13;100.00
12879;BME280;20617;49.476;10.986;2023-04-26T01:30:38;98229.72;;;6.11;100.00
12879;BME280;20617;49.476;10.986;2023-04-26T01:32:43;98234.22;;;6.03;100.00
12879;BME280;20617;49.476;10.986;2023-04-26T01:34:48;98229.22;;;5.97;100.00
12879;BME280;20617;49.476;10.986;2023-04-26T01:36:53;98223.91;;;6.01;100.00
12879;BME280;20617;49.476;10.986;2023-04-26T01:38:58;98221.38;;;6.00;100.00
12879;BME280;20617;49.476;10.986;2023-04-26T01:41:06;98223.16;;;5.96;100.00
12879;BME280;20617;49.476;10.986;2023-04-26T01:43:12;98226.72;;;5.94;100.00
12879;BME280;20617;49.476;10.986;2023-04-26T01:45:19;98229.34;;;5.89;100.00
12879;BME280;20617;49.476;10.986;2023-04-26T01:47:43;98222.53;;;5.86;100.00
12879;BME280;20617;49.476;10.986;2023-04-26T01:49:48;98224.13;;;5.94;100.00
12879;BME280;20617;49.476;10.986;2023-04-26T01:51:54;98221.25;;;6.04;100.00
12879;BME280;20617;49.476;10.986;2023-04-26T01:53:59;98232.31;;;6.11;100.00
12879;BME280;20617;49.476;10.986;2023-04-26T01:56:08;98225.28;;;6.16;100.00
12879;BME280;20617;49.476;10.986;2023-04-26T01:58:13;98224.34;;;6.19;100.00
12879;BME280;20617;49.476;10.986;2023-04-26T02:00:19;98236.59;;;6.12;100.00
12879;BME280;20617;49.476;10.986;2023-04-26T02:02:24;98232.25;;;6.12;100.00
12879;BME280;20617;49.476;10.986;2023-04-26T02:04:30;98236.66;;;6.09;100.00
12879;BME280;20617;49.476;10.986;2023-04-26T02:06:35;98236.75;;;6.04;100.00
12879;BME280;20617;49.476;10.986;2023-04-26T02:08:44;98240.34;;;5.99;100.00
12879;BME280;20617;49.476;10.986;2023-04-26T02:10:49;98237.19;;;5.84;100.00
12879;BME280;20617;49.476;10.986;2023-04-26T02:12:57;98236.56;;;5.76;100.00
12879;BME280;20617;49.476;10.986;2023-04-26T02:15:06;98238.41;;;5.70;100.00
12879;BME280;20617;49.476;10.986;2023-04-26T02:17:12;98238.47;;;5.68;100.00
12879;BME280;20617;49.476;10.986;2023-04-26T02:19:18;98243.84;;;5.57;100.00
12879;BME280;20617;49.476;10.986;2023-04-26T02:21:23;98241.19;;;5.62;100.00
12879;BME280;20617;49.476;10.986;2023-04-26T02:23:29;98245.66;;;5.54;100.00
12879;BME280;20617;49.476;10.986;2023-04-26T02:25:34;98242.19;;;5.55;100.00
12879;BME280;20617;49.476;10.986;2023-04-26T02:27:39;98247.34;;;5.55;100.00
12879;BME280;20617;49.476;10.986;2023-04-26T02:29:46;98241.41;;;5.51;100.00
12879;BME280;20617;49.476;10.986;2023-04-26T02:31:51;98241.41;;;5.51;100.00
12879;BME280;20617;49.476;10.986;2023-04-26T02:33:56;98238.75;;;5.56;100.00
12879;BME280;20617;49.476;10.986;2023-04-26T02:36:06;98239.69;;;5.52;100.00
12879;BME280;20617;49.476;10.986;2023-04-26T02:38:11;98236.16;;;5.56;100.00
12879;BME280;20617;49.476;10.986;2023-04-26T02:40:17;98234.50;;;5.53;100.00
12879;BME280;20617;49.476;10.986;2023-04-26T02:42:21;98242.31;;;5.49;100.00
12879;BME280;20617;49.476;10.986;2023-04-26T02:44:28;98243.28;;;5.44;100.00
12879;BME280;20617;49.476;10.986;2023-04-26T02:46:36;98247.63;;;5.41;100.00
12879;BME280;20617;49.476;10.986;2023-04-26T02:48:44;98240.00;;;5.36;100.00
12879;BME280;20617;49.476;10.986;2023-04-26T02:50:49;98234.72;;;5.41;100.00
12879;BME280;20617;49.476;10.986;2023-04-26T02:52:54;98239.09;;;5.39;100.00
12879;BME280;20617;49.476;10.986;2023-04-26T02:54:59;98236.59;;;5.36;100.00
12879;BME280;20617;49.476;10.986;2023-04-26T02:57:05;98240.84;;;5.38;100.00
12879;BME280;20617;49.476;10.986;2023-04-26T02:59:10;98243.41;;;5.38;100.00
12879;BME280;20617;49.476;10.986;2023-04-26T03:01:16;98246.06;;;5.35;100.00
12879;BME280;20617;49.476;10.986;2023-04-26T03:03:24;98246.72;;;5.45;100.00
12879;BME280;20617;49.476;10.986;2023-04-26T03:05:30;98242.25;;;5.52;100.00
12879;BME280;20617;49.476;10.986;2023-04-26T03:07:36;98246.66;;;5.47;100.00
12879;BME280;20617;49.476;10.986;2023-04-26T03:09:41;98250.06;;;5.49;100.00
12879;BME280;20617;49.476;10.986;2023-04-26T03:11:46;98248.53;;;5.41;100.00
12879;BME280;20617;49.476;10.986;2023-04-26T03:13:51;98254.66;;;5.36;100.00
12879;BME280;20617;49.476;10.986;2023-04-26T03:15:56;98251.31;;;5.31;100.00
12879;BME280;20617;49.476;10.986;2023-04-26T03:18:03;98253.13;;;5.26;100.00
12879;BME280;20617;49.476;10.986;2023-04-26T03:20:11;98254.91;;;5.24;100.00
12879;BME280;20617;49.476;10.986;2023-04-26T03:22:16;98258.44;;;5.19;100.00
12879;BME280;20617;49.476;10.986;2023-04-26T03:24:22;98257.59;;;5.17;100.00
12879;BME280;20617;49.476;10.986;2023-04-26T03:26:28;98252.41;;;5.19;100.00
12879;BME280;20617;49.476;10.986;2023-04-26T03:28:33;98253.41;;;5.13;100.00
12879;BME280;20617;49.476;10.986;2023-04-26T03:30:38;98261.00;;;5.19;100.00
12879;BME280;20617;49.476;10.986;2023-04-26T03:32:43;98260.19;;;5.17;100.00
12879;BME280;20617;49.476;10.986;2023-04-26T03:34:48;98261.91;;;5.17;100.00
12879;BME280;20617;49.476;10.986;2023-04-26T03:36:55;98264.47;;;5.18;100.00
12879;BME280;20617;49.476;10.986;2023-04-26T03:39:00;98258.41;;;5.21;100.00
12879;BME280;20617;49.476;10.986;2023-04-26T03:41:07;98262.66;;;5.24;100.00
12879;BME280;20617;49.476;10.986;2023-04-26T03:43:12;98261.78;;;5.25;100.00
12879;BME280;20617;49.476;10.986;2023-04-26T03:45:18;98266.75;;;5.34;100.00
12879;BME280;20617;49.476;10.986;2023-04-26T03:47:23;98265.00;;;5.34;100.00
12879;BME280;20617;49.476;10.986;2023-04-26T03:49:28;98267.50;;;5.39;100.00
12879;BME280;20617;49.476;10.986;2023-04-26T03:51:33;98266.59;;;5.40;100.00
12879;BME280;20617;49.476;10.986;2023-04-26T03:53:41;98265.06;;;5.33;100.00
12879;BME280;20617;49.476;10.986;2023-04-26T03:55:47;98271.13;;;5.30;100.00
12879;BME280;20617;49.476;10.986;2023-04-26T03:57:52;98275.50;;;5.27;100.00
12879;BME280;20617;49.476;10.986;2023-04-26T03:59:57;98272.13;;;5.23;100.00
12879;BME280;20617;49.476;10.986;2023-04-26T04:02:04;98278.28;;;5.16;100.00
12879;BME280;20617;49.476;10.986;2023-04-26T04:04:09;98275.00;;;5.08;100.00
12879;BME280;20617;49.476;10.986;2023-04-26T04:06:15;98284.63;;;4.99;100.00
12879;BME280;20617;49.476;10.986;2023-04-26T04:08:20;98283.97;;;4.88;100.00
12879;BME280;20617;49.476;10.986;2023-04-26T04:10:28;98283.22;;;4.83;100.00
12879;BME280;20617;49.476;10.986;2023-04-26T04:12:33;98284.06;;;4.84;100.00
12879;BME280;20617;49.476;10.986;2023-04-26T04:14:38;98279.81;;;4.81;100.00
12879;BME280;20617;49.476;10.986;2023-04-26T04:16:43;98283.28;;;4.80;100.00
12879;BME280;20617;49.476;10.986;2023-04-26T04:18:48;98281.50;;;4.84;100.00
12879;BME280;20617;49.476;10.986;2023-04-26T04:20:53;98271.19;;;4.82;100.00
12879;BME280;20617;49.476;10.986;2023-04-26T04:22:58;98278.97;;;4.81;100.00
12879;BME280;20617;49.476;10.986;2023-04-26T04:25:06;98274.63;;;4.83;100.00
12879;BME280;20617;49.476;10.986;2023-04-26T04:27:15;98273.81;;;4.81;100.00
12879;BME280;20617;49.476;10.986;2023-04-26T04:29:23;98283.25;;;4.82;100.00
12879;BME280;20617;49.476;10.986;2023-04-26T04:31:28;98280.66;;;4.83;100.00
12879;BME280;20617;49.476;10.986;2023-04-26T04:33:34;98286.59;;;4.87;100.00
12879;BME280;20617;49.476;10.986;2023-04-26T04:35:40;98293.44;;;4.88;100.00
12879;BME280;20617;49.476;10.986;2023-04-26T04:37:45;98292.53;;;4.92;100.00
12879;BME280;20617;49.476;10.986;2023-04-26T04:39:50;98297.69;;;4.92;100.00
12879;BME280;20617;49.476;10.986;2023-04-26T04:41:56;98297.69;;;4.92;100.00
12879;BME280;20617;49.476;10.986;2023-04-26T04:44:04;98298.47;;;4.94;100.00
12879;BME280;20617;49.476;10.986;2023-04-26T04:46:09;98306.00;;;5.06;100.00
12879;BME280;20617;49.476;10.986;2023-04-26T04:48:14;98300.75;;;5.11;100.00
12879;BME280;20617;49.476;10.986;2023-04-26T04:50:20;98303.25;;;5.14;100.00
12879;BME280;20617;49.476;10.986;2023-04-26T04:52:25;98299.00;;;5.13;100.00
12879;BME280;20617;49.476;10.986;2023-04-26T04:54:30;98305.91;;;5.11;100.00
12879;BME280;20617;49.476;10.986;2023-04-26T04:56:36;98299.00;;;5.11;100.00
12879;BME280;20617;49.476;10.986;2023-04-26T04:58:42;98299.84;;;5.12;100.00
12879;BME280;20617;49.476;10.986;2023-04-26T05:00:50;98308.44;;;5.14;100.00
12879;BME280;20617;49.476;10.986;2023-04-26T05:03:05;98312.69;;;5.16;100.00
12879;BME280;20617;49.476;10.986;2023-04-26T05:05:11;98310.81;;;5.25;100.00
12879;BME280;20617;49.476;10.986;2023-04-26T05:07:16;98306.28;;;5.36;100.00
12879;BME280;20617;49.476;10.986;2023-04-26T05:09:27;98308.63;;;5.47;100.00
12879;BME280;20617;49.476;10.986;2023-04-26T05:11:32;98312.03;;;5.49;100.00
12879;BME280;20617;49.476;10.986;2023-04-26T05:13:38;98307.78;;;5.46;100.00
12879;BME280;20617;49.476;10.986;2023-04-26T05:15:44;98308.75;;;5.40;100.00
12879;BME280;20617;49.476;10.986;2023-04-26T05:17:51;98314.75;;;5.41;100.00
12879;BME280;20617;49.476;10.986;2023-04-26T05:19:58;98310.53;;;5.38;100.00
12879;BME280;20617;49.476;10.986;2023-04-26T05:22:08;98318.16;;;5.43;100.00
12879;BME280;20617;49.476;10.986;2023-04-26T05:24:14;98322.50;;;5.41;100.00
12879;BME280;20617;49.476;10.986;2023-04-26T05:26:19;98322.44;;;5.45;100.00
12879;BME280;20617;49.476;10.986;2023-04-26T05:28:31;98320.38;;;5.61;100.00
12879;BME280;20617;49.476;10.986;2023-04-26T05:30:48;98320.97;;;5.74;100.00
12879;BME280;20617;49.476;10.986;2023-04-26T05:33:05;98322.44;;;5.86;100.00
12879;BME280;20617;49.476;10.986;2023-04-26T05:35:22;98322.56;;;5.80;100.00
12879;BME280;20617;49.476;10.986;2023-04-26T05:37:28;98323.31;;;5.85;100.00
12879;BME280;20617;49.476;10.986;2023-04-26T05:39:33;98324.75;;;6.00;100.00
12879;BME280;20617;49.476;10.986;2023-04-26T05:41:38;98329.63;;;6.12;100.00
12879;BME280;20617;49.476;10.986;2023-04-26T05:43:45;98329.41;;;6.21;100.00
12879;BME280;20617;49.476;10.986;2023-04-26T05:45:50;98332.69;;;6.28;100.00
12879;BME280;20617;49.476;10.986;2023-04-26T05:47:55;98342.94;;;6.32;100.00
12879;BME280;20617;49.476;10.986;2023-04-26T05:50:06;98339.47;;;6.33;100.00
12879;BME280;20617;49.476;10.986;2023-04-26T05:52:12;98339.44;;;6.35;100.00
12879;BME280;20617;49.476;10.986;2023-04-26T05:54:17;98337.47;;;6.45;100.00
12879;BME280;20617;49.476;10.986;2023-04-26T05:56:22;98344.91;;;6.58;100.00
12879;BME280;20617;49.476;10.986;2023-04-26T05:58:27;98340.88;;;6.81;100.00
12879;BME280;20617;49.476;10.986;2023-04-26T06:00:37;98348.53;;;6.86;100.00
12879;BME280;20617;49.476;10.986;2023-04-26T06:02:42;98340.97;;;7.11;100.00
12879;BME280;20617;49.476;10.986;2023-04-26T06:04:51;98341.03;;;7.40;100.00
12879;BME280;20617;49.476;10.986;2023-04-26T06:06:59;98332.78;;;7.57;100.00
12879;BME280;20617;49.476;10.986;2023-04-26T06:09:05;98336.19;;;7.59;100.00
12879;BME280;20617;49.476;10.986;2023-04-26T06:11:10;98338.81;;;7.58;100.00
12879;BME280;20617;49.476;10.986;2023-04-26T06:13:17;98347.97;;;7.38;100.00
12879;BME280;20617;49.476;10.986;2023-04-26T06:15:22;98344.69;;;7.33;100.00
12879;BME280;20617;49.476;10.986;2023-04-26T06:17:29;98347.38;;;7.29;100.00
12879;BME280;20617;49.476;10.986;2023-04-26T06:19:34;98351.16;;;7.17;100.00
12879;BME280;20617;49.476;10.986;2023-04-26T06:21:39;98351.50;;;7.05;100.00
12879;BME280;20617;49.476;10.986;2023-04-26T06:23:47;98356.59;;;7.08;100.00
12879;BME280;20617;49.476;10.986;2023-04-26T06:25:54;98351.97;;;7.19;100.00
12879;BME280;20617;49.476;10.986;2023-04-26T06:27:59;98353.69;;;7.18;100.00
12879;BME280;20617;49.476;10.986;2023-04-26T06:30:06;98361.00;;;7.04;100.00
12879;BME280;20617;49.476;10.986;2023-04-26T06:32:15;98357.06;;;7.22;100.00
12879;BME280;20617;49.476;10.986;2023-04-26T06:34:20;98355.81;;;7.37;100.00
12879;BME280;20617;49.476;10.986;2023-04-26T06:36:25;98352.88;;;7.49;100.00
12879;BME280;20617;49.476;10.986;2023-04-26T06:38:31;98352.59;;;7.58;100.00
12879;BME280;20617;49.476;10.986;2023-04-26T06:40:38;98353.63;;;7.53;100.00
12879;BME280;20617;49.476;10.986;2023-04-26T06:42:44;98353.34;;;7.62;100.00
12879;BME280;20617;49.476;10.986;2023-04-26T06:45:12;98346.97;;;7.74;100.00
12879;BME280;20617;49.476;10.986;2023-04-26T06:47:19;98351.03;;;7.82;100.00
12879;BME280;20617;49.476;10.986;2023-04-26T06:49:24;98356.41;;;7.76;100.00
12879;BME280;20617;49.476;10.986;2023-04-26T06:51:29;98356.28;;;7.81;100.00
12879;BME280;20617;49.476;10.986;2023-04-26T06:53:34;98353.50;;;7.87;100.00
12879;BME280;20617;49.476;10.986;2023-04-26T06:55:42;98358.91;;;7.79;100.00
12879;BME280;20617;49.476;10.986;2023-04-26T06:57:46;98364.00;;;7.82;100.00
12879;BME280;20617;49.476;10.986;2023-04-26T06:59:51;98356.22;;;7.82;100.00
12879;BME280;20617;49.476;10.986;2023-04-26T07:01:56;98351.94;;;7.81;100.00
12879;BME280;20617;49.476;10.986;2023-04-26T07:04:04;98352.03;;;7.78;100.00
12879;BME280;20617;49.476;10.986;2023-04-26T07:06:11;98360.53;;;7.83;100.00
12879;BME280;20617;49.476;10.986;2023-04-26T07:08:17;98354.44;;;7.84;100.00
12879;BME280;20617;49.476;10.986;2023-04-26T07:10:22;98355.28;;;7.85;100.00
12879;BME280;20617;49.476;10.986;2023-04-26T07:12:31;98361.94;;;7.93;100.00
12879;BME280;20617;49.476;10.986;2023-04-26T07:14:36;98355.16;;;7.89;100.00
12879;BME280;20617;49.476;10.986;2023-04-26T07:16:41;98353.03;;;8.02;100.00
12879;BME280;20617;49.476;10.986;2023-04-26T07:18:47;98358.00;;;8.10;100.00
12879;BME280;20617;49.476;10.986;2023-04-26T07:20:52;98358.66;;;8.16;100.00
12879;BME280;20617;49.476;10.986;2023-04-26T07:22:57;98360.94;;;8.26;100.00
12879;BME280;20617;49.476;10.986;2023-04-26T07:25:02;98352.00;;;8.36;100.00
12879;BME280;20617;49.476;10.986;2023-04-26T07:27:08;98361.16;;;8.48;100.00
12879;BME280;20617;49.476;10.986;2023-04-26T07:29:16;98357.78;;;8.46;100.00
12879;BME280;20617;49.476;10.986;2023-04-26T07:31:22;98359.72;;;8.39;100.00
12879;BME280;20617;49.476;10.986;2023-04-26T07:33:27;98360.75;;;8.32;100.00
12879;BME280;20617;49.476;10.986;2023-04-26T07:35:32;98354.53;;;8.39;100.00
12879;BME280;20617;49.476;10.986;2023-04-26T07:37:38;98353.38;;;8.48;100.00
12879;BME280;20617;49.476;10.986;2023-04-26T07:39:43;98355.19;;;8.46;100.00
12879;BME280;20617;49.476;10.986;2023-04-26T07:41:48;98356.91;;;8.47;100.00
12879;BME280;20617;49.476;10.986;2023-04-26T07:43:52;98362.81;;;8.50;100.00
12879;BME280;20617;49.476;10.986;2023-04-26T07:46:01;98360.56;;;8.66;100.00
12879;BME280;20617;49.476;10.986;2023-04-26T07:48:06;98360.38;;;8.72;100.00
12879;BME280;20617;49.476;10.986;2023-04-26T07:50:11;98359.47;;;8.73;100.00
12879;BME280;20617;49.476;10.986;2023-04-26T07:52:16;98364.47;;;8.53;100.00
12879;BME280;20617;49.476;10.986;2023-04-26T07:54:21;98360.84;;;8.58;100.00
12879;BME280;20617;49.476;10.986;2023-04-26T07:56:26;98355.94;;;8.76;100.00
12879;BME280;20617;49.476;10.986;2023-04-26T07:58:31;98368.03;;;8.75;100.00
12879;BME280;20617;49.476;10.986;2023-04-26T08:00:37;98362.84;;;8.75;100.00
12879;BME280;20617;49.476;10.986;2023-04-26T08:02:47;98357.91;;;8.94;100.00
12879;BME280;20617;49.476;10.986;2023-04-26T08:04:54;98346.63;;;9.20;100.00
12879;BME280;20617;49.476;10.986;2023-04-26T08:06:59;98343.78;;;9.51;100.00
12879;BME280;20617;49.476;10.986;2023-04-26T08:09:06;98348.53;;;9.87;100.00
12879;BME280;20617;49.476;10.986;2023-04-26T08:11:12;98350.25;;;10.10;98.03
12879;BME280;20617;49.476;10.986;2023-04-26T08:13:17;98352.16;;;10.29;94.60
12879;BME280;20617;49.476;10.986;2023-04-26T08:15:22;98349.53;;;10.07;93.52
12879;BME280;20617;49.476;10.986;2023-04-26T08:17:27;98353.13;;;10.03;95.85
12879;BME280;20617;49.476;10.986;2023-04-26T08:19:34;98365.31;;;9.79;96.06
12879;BME280;20617;49.476;10.986;2023-04-26T08:21:39;98359.63;;;9.69;95.84
12879;BME280;20617;49.476;10.986;2023-04-26T08:23:46;98359.31;;;9.77;94.01
12879;BME280;20617;49.476;10.986;2023-04-26T08:25:51;98358.19;;;9.84;93.23
12879;BME280;20617;49.476;10.986;2023-04-26T08:27:56;98359.25;;;10.02;92.20
12879;BME280;20617;49.476;10.986;2023-04-26T08:30:01;98358.91;;;10.11;91.63
12879;BME280;20617;49.476;10.986;2023-04-26T08:32:06;98352.06;;;10.52;91.07
12879;BME280;20617;49.476;10.986;2023-04-26T08:34:13;98346.47;;;10.83;88.44
12879;BME280;20617;49.476;10.986;2023-04-26T08:36:21;98351.38;;;10.91;83.37
12879;BME280;20617;49.476;10.986;2023-04-26T08:38:26;98352.50;;;10.63;84.01
12879;BME280;20617;49.476;10.986;2023-04-26T08:40:31;98361.53;;;10.55;82.30
12879;BME280;20617;49.476;10.986;2023-04-26T08:42:39;98359.84;;;10.32;80.10
12879;BME280;20617;49.476;10.986;2023-04-26T08:44:45;98355.50;;;10.09;84.56
12879;BME280;20617;49.476;10.986;2023-04-26T08:47:00;98356.00;;;10.18;87.21
12879;BME280;20617;49.476;10.986;2023-04-26T08:49:14;98351.31;;;10.28;86.50
12879;BME280;20617;49.476;10.986;2023-04-26T08:51:25;98345.69;;;10.39;83.89
12879;BME280;20617;49.476;10.986;2023-04-26T08:53:33;98341.50;;;10.35;82.76
12879;BME280;20617;49.476;10.986;2023-04-26T08:55:41;98346.25;;;10.47;80.62
12879;BME280;20617;49.476;10.986;2023-04-26T08:57:47;98338.50;;;10.66;77.16
12879;BME280;20617;49.476;10.986;2023-04-26T08:59:55;98333.97;;;10.92;68.82
12879;BME280;20617;49.476;10.986;2023-04-26T09:02:01;98342.38;;;10.98;66.28
12879;BME280;20617;49.476;10.986;2023-04-26T09:04:09;98341.13;;;10.86;65.36
12879;BME280;20617;49.476;10.986;2023-04-26T09:06:16;98347.06;;;10.90;65.25
12879;BME280;20617;49.476;10.986;2023-04-26T09:08:25;98343.34;;;10.75;65.35
12879;BME280;20617;49.476;10.986;2023-04-26T09:10:30;98342.47;;;10.54;66.22
12879;BME280;20617;49.476;10.986;2023-04-26T09:12:36;98347.63;;;10.34;64.56
12879;BME280;20617;49.476;10.986;2023-04-26T09:14:43;98347.28;;;10.19;63.62
12879;BME280;20617;49.476;10.986;2023-04-26T09:16:48;98344.91;;;10.37;63.78
12879;BME280;20617;49.476;10.986;2023-04-26T09:18:53;98346.44;;;10.63;58.03
12879;BME280;20617;49.476;10.986;2023-04-26T09:21:05;98345.88;;;10.56;54.03
12879;BME280;20617;49.476;10.986;2023-04-26T09:23:10;98342.09;;;10.63;56.29
12879;BME280;20617;49.476;10.986;2023-04-26T09:25:27;98338.28;;;10.93;57.27
12879;BME280;20617;49.476;10.986;2023-04-26T09:27:34;98341.94;;;11.09;56.50
12879;BME280;20617;49.476;10.986;2023-04-26T09:29:42;98328.56;;;10.96;55.74
12879;BME280;20617;49.476;10.986;2023-04-26T09:32:00;98326.34;;;10.87;56.33
12879;BME280;20617;49.476;10.986;2023-04-26T09:34:09;98338.19;;;10.53;53.99
12879;BME280;20617;49.476;10.986;2023-04-26T09:36:14;98331.50;;;10.46;52.50
12879;BME280;20617;49.476;10.986;2023-04-26T09:38:19;98336.03;;;10.63;51.69
12879;BME280;20617;49.476;10.986;2023-04-26T09:40:28;98329.53;;;10.73;47.92
12879;BME280;20617;49.476;10.986;2023-04-26T09:42:34;98323.28;;;10.77;47.48
12879;BME280;20617;49.476;10.986;2023-04-26T09:44:39;98329.66;;;10.91;47.73
12879;BME280;20617;49.476;10.986;2023-04-26T09:46:56;98325.25;;;11.13;46.06
12879;BME280;20617;49.476;10.986;2023-04-26T09:49:01;98320.69;;;11.18;46.19
12879;BME280;20617;49.476;10.986;2023-04-26T09:51:09;98325.91;;;10.98;44.75
12879;BME280;20617;49.476;10.986;2023-04-26T09:53:24;98323.69;;;10.88;45.93
12879;BME280;20617;49.476;10.986;2023-04-26T09:55:35;98324.28;;;10.95;46.00
12879;BME280;20617;49.476;10.986;2023-04-26T09:57:43;98330.69;;;10.66;48.42
12879;BME280;20617;49.476;10.986;2023-04-26T09:59:49;98323.31;;;10.98;49.42
12879;BME280;20617;49.476;10.986;2023-04-26T10:01:56;98326.63;;;11.01;46.96
12879;BME280;20617;49.476;10.986;2023-04-26T10:04:01;98319.13;;;10.94;44.94
12879;BME280;20617;49.476;10.986;2023-04-26T10:06:07;98316.16;;;11.03;46.34
12879;BME280;20617;49.476;10.986;2023-04-26T10:08:12;98319.13;;;11.14;47.30
12879;BME280;20617;49.476;10.986;2023-04-26T10:10:17;98313.06;;;11.14;44.92
12879;BME280;20617;49.476;10.986;2023-04-26T10:12:25;98306.69;;;11.40;46.67
12879;BME280;20617;49.476;10.986;2023-04-26T10:14:30;98313.47;;;11.63;47.19
12879;BME280;20617;49.476;10.986;2023-04-26T10:16:35;98312.41;;;11.87;45.26
12879;BME280;20617;49.476;10.986;2023-04-26T10:18:44;98310.94;;;12.18;44.85
12879;BME280;20617;49.476;10.986;2023-04-26T10:20:54;98308.06;;;12.41;44.62
12879;BME280;20617;49.476;10.986;2023-04-26T10:23:00;98311.09;;;12.51;43.50
12879;BME280;20617;49.476;10.986;2023-04-26T10:25:09;98307.72;;;12.66;43.41
12879;BME280;20617;49.476;10.986;2023-04-26T10:27:13;98306.94;;;12.47;44.39
12879;BME280;20617;49.476;10.986;2023-04-26T10:29:21;98307.16;;;12.25;47.83
12879;BME280;20617;49.476;10.986;2023-04-26T10:32:06;98306.25;;;12.43;47.78
12879;BME280;20617;49.476;10.986;2023-04-26T10:34:18;98306.03;;;12.48;47.35
12879;BME280;20617;49.476;10.986;2023-04-26T10:36:23;98310.84;;;12.56;46.74
12879;BME280;20617;49.476;10.986;2023-04-26T10:38:28;98301.88;;;12.61;47.65
12879;BME280;20617;49.476;10.986;2023-04-26T10:40:36;98308.72;;;12.81;46.27
12879;BME280;20617;49.476;10.986;2023-04-26T10:42:41;98302.81;;;12.60;43.99
12879;BME280;20617;49.476;10.986;2023-04-26T10:44:49;98304.47;;;12.44;44.00
12879;BME280;20617;49.476;10.986;2023-04-26T10:46:55;98305.59;;;12.21;43.98
12879;BME280;20617;49.476;10.986;2023-04-26T10:49:11;98308.63;;;12.12;44.23
12879;BME280;20617;49.476;10.986;2023-04-26T10:51:17;98312.31;;;12.08;43.87
12879;BME280;20617;49.476;10.986;2023-04-26T10:53:23;98311.78;;;11.81;44.06
12879;BME280;20617;49.476;10.986;2023-04-26T10:55:37;98310.50;;;11.51;45.64
12879;BME280;20617;49.476;10.986;2023-04-26T10:57:49;98301.38;;;11.62;45.68
12879;BME280;20617;49.476;10.986;2023-04-26T11:05:40;98295.97;;;12.58;43.94
12879;BME280;20617;49.476;10.986;2023-04-26T11:08:02;98295.88;;;12.59;43.23